createdAt,value
2022-08-17T00:00:07.161Z,19.70
2022-08-17T00:03:14.449Z,19.80
2022-08-17T00:05:45.976Z,19.80
2022-08-17T00:08:14.974Z,19.80
2022-08-17T00:10:44.895Z,19.70
2022-08-17T00:13:26.155Z,19.80
2022-08-17T00:15:57.935Z,19.80
2022-08-17T00:19:01.757Z,19.70
2022-08-17T00:21:14.137Z,19.70
2022-08-17T00:23:47.792Z,19.60
2022-08-17T00:26:43.512Z,19.60
2022-08-17T00:29:05.315Z,19.40
2022-08-17T00:31:32.474Z,19.30
2022-08-17T00:33:59.565Z,19.40
2022-08-17T00:36:26.750Z,19.40
2022-08-17T00:38:53.860Z,19.30
2022-08-17T00:41:24.142Z,19.30
2022-08-17T00:44:01.519Z,19.20
2022-08-17T00:46:39.406Z,19.10
2022-08-17T00:49:08.779Z,19.10
2022-08-17T00:51:50.663Z,19.20
2022-08-17T00:54:29.165Z,19.10
2022-08-17T00:57:05.101Z,19.10
2022-08-17T00:59:39.794Z,19.10
2022-08-17T01:02:09.718Z,19.10
2022-08-17T01:04:37.001Z,19.10
2022-08-17T01:07:05.368Z,19.10
2022-08-17T01:09:33.496Z,19.10
2022-08-17T01:12:00.833Z,19.00
2022-08-17T01:14:28.084Z,19.00
2022-08-17T01:16:56.238Z,18.90
2022-08-17T01:19:36.623Z,18.80
2022-08-17T01:22:07.680Z,18.70
2022-08-17T01:24:37.204Z,18.80
2022-08-17T01:27:10.432Z,18.80
2022-08-17T01:29:39.372Z,18.70
2022-08-17T01:32:08.232Z,18.80
2022-08-17T01:34:42.333Z,18.70
2022-08-17T01:37:11.505Z,18.60
2022-08-17T01:39:42.328Z,18.60
2022-08-17T01:42:37.601Z,18.60
2022-08-17T01:45:17.780Z,18.50
2022-08-17T01:47:44.949Z,18.30
2022-08-17T01:50:18.967Z,18.30
2022-08-17T01:52:49.923Z,18.30
2022-08-17T01:55:21.558Z,18.30
2022-08-17T01:57:51.613Z,18.30
2022-08-17T02:00:19.042Z,18.30
2022-08-17T02:02:46.138Z,18.30
2022-08-17T02:05:13.692Z,18.30
2022-08-17T02:07:59.489Z,18.30
2022-08-17T02:10:34.089Z,18.30
2022-08-17T02:13:03.670Z,18.30
2022-08-17T02:15:30.811Z,18.30
2022-08-17T02:17:57.960Z,18.20
2022-08-17T02:20:36.424Z,18.10
2022-08-17T02:23:11.992Z,18.10
2022-08-17T02:25:40.071Z,18.10
2022-08-17T02:28:07.024Z,18.10
2022-08-17T02:31:00.835Z,18.00
2022-08-17T02:33:22.362Z,18.00
2022-08-17T02:35:49.397Z,17.90
2022-08-17T02:38:16.717Z,17.90
2022-08-17T02:40:43.899Z,17.90
2022-08-17T02:43:13.789Z,17.90
2022-08-17T02:45:41.023Z,17.90
2022-08-17T02:48:08.470Z,17.90
2022-08-17T02:50:35.703Z,17.80
2022-08-17T02:53:04.749Z,17.80
2022-08-17T02:55:38.097Z,17.80
2022-08-17T02:58:05.348Z,17.80
2022-08-17T03:00:35.628Z,17.80
2022-08-17T03:03:05.319Z,17.70
2022-08-17T03:05:35.069Z,17.70
2022-08-17T03:08:03.115Z,17.70
2022-08-17T03:10:30.122Z,17.70
2022-08-17T03:12:57.168Z,17.60
2022-08-17T03:15:28.029Z,17.60
2022-08-17T03:17:56.764Z,17.50
2022-08-17T03:20:25.113Z,17.60
2022-08-17T03:22:54.681Z,17.60
2022-08-17T03:25:35.752Z,17.50
2022-08-17T03:28:05.350Z,17.50
2022-08-17T03:30:33.321Z,17.40
2022-08-17T03:33:03.010Z,17.30
2022-08-17T03:35:32.854Z,17.40
2022-08-17T03:38:01.377Z,17.40
2022-08-17T03:40:55.501Z,17.30
2022-08-17T03:43:17.511Z,17.10
2022-08-17T03:46:03.288Z,17.10
2022-08-17T03:48:50.037Z,17.20
2022-08-17T03:51:40.596Z,17.20
2022-08-17T03:54:26.672Z,17.30
2022-08-17T03:57:09.811Z,17.20
2022-08-17T03:59:38.252Z,17.20
2022-08-17T04:02:11.536Z,17.10
2022-08-17T04:04:39.638Z,17.10
2022-08-17T04:07:07.551Z,17.00
2022-08-17T04:09:35.069Z,17.00
2022-08-17T04:12:04.614Z,17.00
2022-08-17T04:14:51.976Z,17.00
2022-08-17T04:17:26.406Z,17.10
2022-08-17T04:19:54.731Z,17.00
2022-08-17T04:22:31.766Z,17.00
2022-08-17T04:25:17.311Z,17.00
2022-08-17T04:27:44.342Z,17.00
2022-08-17T04:30:11.822Z,17.10
2022-08-17T04:33:04.149Z,17.00
2022-08-17T04:35:40.262Z,17.00
2022-08-17T04:38:10.007Z,17.00
2022-08-17T04:40:55.829Z,17.00
2022-08-17T04:43:25.540Z,17.00
2022-08-17T04:46:02.814Z,17.00
2022-08-17T04:48:36.022Z,17.10
2022-08-17T04:51:10.962Z,17.00
2022-08-17T04:53:40.349Z,17.00
2022-08-17T04:56:11.672Z,17.00
2022-08-17T04:58:45.674Z,17.00
2022-08-17T05:01:13.146Z,17.10
2022-08-17T05:03:40.182Z,17.10
2022-08-17T05:06:07.459Z,17.20
2022-08-17T05:08:34.964Z,17.20
2022-08-17T05:11:02.108Z,17.30
2022-08-17T05:13:29.945Z,17.30
2022-08-17T05:16:00.236Z,17.40
2022-08-17T05:18:28.330Z,17.50
2022-08-17T05:20:55.917Z,17.50
2022-08-17T05:23:24.997Z,17.60
2022-08-17T05:25:55.456Z,17.60
2022-08-17T05:28:27.347Z,17.60
2022-08-17T05:31:01.336Z,17.70
2022-08-17T05:33:31.802Z,17.80
2022-08-17T05:36:00.421Z,17.80
2022-08-17T05:38:29.322Z,17.90
2022-08-17T05:40:58.006Z,17.90
2022-08-17T05:43:26.507Z,17.90
2022-08-17T05:46:13.224Z,18.00
2022-08-17T05:48:49.634Z,18.10
2022-08-17T05:51:19.652Z,18.20
2022-08-17T05:54:12.784Z,18.30
2022-08-17T05:56:51.711Z,18.30
2022-08-17T05:59:52.761Z,18.30
2022-08-17T06:03:01.255Z,18.30
2022-08-17T06:05:54.275Z,18.50
2022-08-17T06:08:51.792Z,18.80
2022-08-17T06:11:40.196Z,19.10
2022-08-17T06:14:22.250Z,19.20
2022-08-17T06:16:56.103Z,19.40
2022-08-17T06:19:47.539Z,19.60
2022-08-17T06:22:18.581Z,19.60
2022-08-17T06:25:01.179Z,19.80
2022-08-17T06:28:03.286Z,20.00
2022-08-17T06:31:00.040Z,20.10
2022-08-17T06:33:27.369Z,20.10
2022-08-17T06:36:33.734Z,20.20
2022-08-17T06:39:37.401Z,20.30
2022-08-17T06:42:54.758Z,20.50
2022-08-17T06:45:31.352Z,20.60
2022-08-17T06:48:10.089Z,20.60
2022-08-17T06:50:48.080Z,20.80
2022-08-17T06:53:31.701Z,20.90
2022-08-17T06:56:12.230Z,21.00
2022-08-17T06:58:43.455Z,21.10
2022-08-17T07:01:26.902Z,21.20
2022-08-17T07:04:06.367Z,21.40
2022-08-17T07:06:47.295Z,21.60
2022-08-17T07:09:37.958Z,21.80
2022-08-17T07:12:34.223Z,21.90
2022-08-17T07:15:11.197Z,22.10
2022-08-17T07:17:47.760Z,22.10
2022-08-17T07:20:20.676Z,22.10
2022-08-17T07:23:19.138Z,22.20
2022-08-17T07:25:47.706Z,22.40
2022-08-17T07:28:22.940Z,22.60
2022-08-17T07:30:54.796Z,22.70
2022-08-17T07:33:30.967Z,22.70
2022-08-17T07:35:59.425Z,22.90
2022-08-17T07:38:35.753Z,23.00
2022-08-17T07:41:08.914Z,23.30
2022-08-17T07:43:42.059Z,23.30
2022-08-17T07:46:33.703Z,23.40
2022-08-17T07:49:06.208Z,23.50
2022-08-17T07:51:36.550Z,23.70
2022-08-17T07:54:22.651Z,23.80
2022-08-17T07:57:01.033Z,24.00
2022-08-17T07:59:35.049Z,24.20
2022-08-17T08:02:16.250Z,24.20
2022-08-17T08:05:02.130Z,24.50
2022-08-17T08:07:34.856Z,24.60
2022-08-17T08:10:01.909Z,24.60
2022-08-17T08:12:34.225Z,24.70
2022-08-17T08:15:10.227Z,24.70
2022-08-17T08:17:47.287Z,24.90
2022-08-17T08:20:34.996Z,25.00
2022-08-17T08:23:11.468Z,25.00
2022-08-17T08:25:56.789Z,25.30
2022-08-17T08:28:34.114Z,25.50
2022-08-17T08:31:24.537Z,25.40
2022-08-17T08:34:59.210Z,25.60
2022-08-17T08:37:32.276Z,25.70
2022-08-17T08:40:23.005Z,25.90
2022-08-17T08:43:16.400Z,26.20
2022-08-17T08:45:52.864Z,26.40
2022-08-17T08:48:53.293Z,26.30
2022-08-17T08:51:35.938Z,26.30
2022-08-17T08:54:33.490Z,26.40
2022-08-17T08:57:32.701Z,26.70
2022-08-17T09:00:06.011Z,26.80
2022-08-17T09:02:57.201Z,26.80
2022-08-17T09:05:36.756Z,26.90
2022-08-17T09:08:16.661Z,27.10
2022-08-17T09:11:04.833Z,27.20
2022-08-17T09:13:34.614Z,27.40
2022-08-17T09:16:09.099Z,27.40
2022-08-17T09:19:03.059Z,27.30
2022-08-17T09:21:54.960Z,27.40
2022-08-17T09:24:57.103Z,27.50
2022-08-17T09:27:31.135Z,27.60
2022-08-17T09:30:07.970Z,27.60
2022-08-17T09:32:40.362Z,27.70
2022-08-17T09:35:36.711Z,27.90
2022-08-17T09:38:32.765Z,27.90
2022-08-17T09:41:13.758Z,28.00
2022-08-17T09:44:02.311Z,28.30
2022-08-17T09:46:39.353Z,28.40
2022-08-17T09:49:25.185Z,28.30
2022-08-17T09:51:58.602Z,28.30
2022-08-17T09:54:38.697Z,28.40
2022-08-17T09:57:39.944Z,28.50
2022-08-17T10:00:09.994Z,28.60
2022-08-17T10:02:41.735Z,28.80
2022-08-17T10:05:40.984Z,29.00
2022-08-17T10:08:24.158Z,29.00
2022-08-17T10:11:19.050Z,29.20
2022-08-17T10:13:58.748Z,29.30
2022-08-17T10:16:38.747Z,29.40
2022-08-17T10:19:44.122Z,29.30
2022-08-17T10:22:41.349Z,29.40
2022-08-17T10:25:48.704Z,29.50
2022-08-17T10:28:28.815Z,29.60
2022-08-17T10:31:30.938Z,29.60
2022-08-17T10:34:07.223Z,29.70
2022-08-17T10:36:54.781Z,29.80
2022-08-17T10:39:34.707Z,30.00
2022-08-17T10:42:47.037Z,30.00
2022-08-17T10:45:26.630Z,30.10
2022-08-17T10:48:20.857Z,30.00
2022-08-17T10:50:59.690Z,30.20
2022-08-17T10:53:32.709Z,30.10
2022-08-17T10:56:12.102Z,30.10
2022-08-17T10:58:54.391Z,30.00
2022-08-17T11:01:38.005Z,30.10
2022-08-17T11:04:23.841Z,30.20
2022-08-17T11:07:12.805Z,30.50
2022-08-17T11:10:15.391Z,30.50
2022-08-17T11:13:01.138Z,30.40
2022-08-17T11:15:37.260Z,30.60
2022-08-17T11:18:13.255Z,30.80
2022-08-17T11:21:02.015Z,31.00
2022-08-17T11:23:51.675Z,31.00
2022-08-17T11:26:46.247Z,30.90
2022-08-17T11:29:29.364Z,31.00
2022-08-17T11:32:13.593Z,31.10
2022-08-17T11:34:44.587Z,31.10
2022-08-17T11:37:28.442Z,31.30
2022-08-17T11:40:03.451Z,31.50
2022-08-17T11:42:38.911Z,31.40
2022-08-17T11:45:09.119Z,31.30
2022-08-17T11:48:26.704Z,31.10
2022-08-17T11:51:14.105Z,31.10
2022-08-17T11:54:21.563Z,31.30
2022-08-17T11:56:49.379Z,31.40
2022-08-17T11:59:39.284Z,31.40
2022-08-17T12:02:31.732Z,31.40
2022-08-17T12:05:17.117Z,31.50
2022-08-17T12:07:48.966Z,31.70
2022-08-17T12:10:21.626Z,32.00
2022-08-17T12:12:52.956Z,31.70
2022-08-17T12:15:29.919Z,31.70
2022-08-17T12:17:57.916Z,31.60
2022-08-17T12:20:35.530Z,31.70
2022-08-17T12:23:21.774Z,31.80
2022-08-17T12:26:07.397Z,32.10
2022-08-17T12:28:37.183Z,32.20
2022-08-17T12:31:17.925Z,31.90
2022-08-17T12:33:47.409Z,31.70
2022-08-17T12:36:17.693Z,31.90
2022-08-17T12:38:57.292Z,32.00
2022-08-17T12:41:34.323Z,32.10
2022-08-17T12:44:12.530Z,32.20
2022-08-17T12:46:54.102Z,32.30
2022-08-17T12:49:24.713Z,32.10
2022-08-17T12:51:56.581Z,32.00
2022-08-17T12:54:31.659Z,32.10
2022-08-17T12:57:05.619Z,32.20
2022-08-17T12:59:33.204Z,32.20
2022-08-17T13:02:00.667Z,32.10
2022-08-17T13:04:29.666Z,32.30
2022-08-17T13:06:59.715Z,32.50
2022-08-17T13:09:35.459Z,32.60
2022-08-17T13:12:04.960Z,32.50
2022-08-17T13:14:34.043Z,32.40
2022-08-17T13:17:06.285Z,32.30
2022-08-17T13:19:48.316Z,32.30
2022-08-17T13:22:15.443Z,32.10
2022-08-17T13:24:57.995Z,32.10
2022-08-17T13:27:27.647Z,32.20
2022-08-17T13:30:00.233Z,32.20
2022-08-17T13:32:47.249Z,32.30
2022-08-17T13:35:40.949Z,32.30
2022-08-17T13:38:45.549Z,32.20
2022-08-17T13:41:45.625Z,32.10
2022-08-17T13:44:34.344Z,32.30
2022-08-17T13:47:03.358Z,32.40
2022-08-17T13:49:42.095Z,32.50
2022-08-17T13:52:39.514Z,32.50
2022-08-17T13:55:21.003Z,32.50
2022-08-17T13:58:00.941Z,32.60
2022-08-17T14:00:36.392Z,32.50
2022-08-17T14:03:05.691Z,32.60
2022-08-17T14:05:33.894Z,32.60
2022-08-17T14:08:06.891Z,32.50
2022-08-17T14:10:36.495Z,32.60
2022-08-17T14:13:05.069Z,32.60
2022-08-17T14:15:54.989Z,32.60
2022-08-17T14:18:50.535Z,32.70
2022-08-17T14:21:08.739Z,32.70
2022-08-17T14:23:36.791Z,32.80
2022-08-17T14:26:04.604Z,32.70
2022-08-17T14:28:36.376Z,32.80
2022-08-17T14:31:04.399Z,32.90
2022-08-17T14:33:31.591Z,33.00
2022-08-17T14:35:58.788Z,33.10
2022-08-17T14:38:26.217Z,33.00
2022-08-17T14:40:53.502Z,32.90
2022-08-17T14:43:21.093Z,32.80
2022-08-17T14:45:48.155Z,32.90
2022-08-17T14:48:15.756Z,32.70
2022-08-17T14:50:43.974Z,32.70
2022-08-17T14:53:14.302Z,32.80
2022-08-17T14:55:41.435Z,32.80
2022-08-17T14:58:09.231Z,32.60
2022-08-17T15:00:39.013Z,32.70
2022-08-17T15:03:06.165Z,32.70
2022-08-17T15:05:36.735Z,32.70
2022-08-17T15:08:07.751Z,32.60
2022-08-17T15:10:35.468Z,32.70
2022-08-17T15:13:02.741Z,32.60
2022-08-17T15:15:29.873Z,32.60
2022-08-17T15:17:57.600Z,32.70
2022-08-17T15:20:28.383Z,32.70
2022-08-17T15:22:57.508Z,32.80
2022-08-17T15:25:32.016Z,32.70
2022-08-17T15:28:00.332Z,32.80
2022-08-17T15:30:28.528Z,32.80
2022-08-17T15:32:57.761Z,32.80
2022-08-17T15:35:29.116Z,32.70
2022-08-17T15:38:04.927Z,32.70
2022-08-17T15:40:40.284Z,32.80
2022-08-17T15:43:11.395Z,32.70
2022-08-17T15:45:39.296Z,32.70
2022-08-17T15:48:06.445Z,32.70
2022-08-17T15:50:33.545Z,32.70
2022-08-17T15:53:01.597Z,32.60
2022-08-17T15:55:30.430Z,32.50
2022-08-17T15:57:57.509Z,32.60
2022-08-17T16:00:29.376Z,32.60
2022-08-17T16:03:46.006Z,32.60
2022-08-17T16:05:47.496Z,32.50
2022-08-17T16:08:20.091Z,32.40
2022-08-17T16:10:48.641Z,32.40
2022-08-17T16:13:17.675Z,32.40
2022-08-17T16:15:53.003Z,32.20
2022-08-17T16:18:30.962Z,32.20
2022-08-17T16:21:26.942Z,32.30
2022-08-17T16:23:56.508Z,32.30
2022-08-17T16:26:23.774Z,32.20
2022-08-17T16:28:51.411Z,32.20
2022-08-17T16:31:18.447Z,32.20
2022-08-17T16:34:15.573Z,32.00
2022-08-17T16:36:32.506Z,31.90
2022-08-17T16:39:00.702Z,31.80
2022-08-17T16:41:46.174Z,31.80
2022-08-17T16:44:19.803Z,31.80
2022-08-17T16:46:48.265Z,31.70
2022-08-17T16:49:35.537Z,31.70
2022-08-17T16:52:04.900Z,31.70
2022-08-17T16:54:31.983Z,31.70
2022-08-17T16:56:59.223Z,31.60
2022-08-17T16:59:38.876Z,31.60
2022-08-17T17:02:11.087Z,31.60
2022-08-17T17:04:46.004Z,31.50
2022-08-17T17:07:34.813Z,31.40
2022-08-17T17:10:09.602Z,31.30
2022-08-17T17:13:03.195Z,31.10
2022-08-17T17:15:34.527Z,30.90
2022-08-17T17:18:07.279Z,30.90
2022-08-17T17:20:43.852Z,30.90
2022-08-17T17:23:57.933Z,30.70
2022-08-17T17:26:52.796Z,30.60
2022-08-17T17:29:55.158Z,30.40
2022-08-17T17:32:37.850Z,30.40
2022-08-17T17:35:22.896Z,30.30
2022-08-17T17:37:52.454Z,30.30
2022-08-17T17:40:27.331Z,30.00
2022-08-17T17:43:14.387Z,30.00
2022-08-17T17:46:26.675Z,29.90
2022-08-17T17:48:50.837Z,29.80
2022-08-17T17:52:06.681Z,29.80
2022-08-17T17:54:20.726Z,29.40
2022-08-17T17:57:02.152Z,29.40
2022-08-17T17:59:33.589Z,29.20
2022-08-17T18:02:00.653Z,29.00
2022-08-17T18:04:37.590Z,29.00
2022-08-17T18:07:13.521Z,28.80
2022-08-17T18:10:01.495Z,28.80
2022-08-17T18:13:01.309Z,28.60
2022-08-17T18:15:35.666Z,28.50
2022-08-17T18:18:14.858Z,28.30
2022-08-17T18:20:54.060Z,28.20
2022-08-17T18:23:28.027Z,28.20
2022-08-17T18:25:58.682Z,28.00
2022-08-17T18:28:33.635Z,28.00
2022-08-17T18:31:19.061Z,27.90
2022-08-17T18:33:49.916Z,27.90
2022-08-17T18:36:33.129Z,27.70
2022-08-17T18:39:11.391Z,27.50
2022-08-17T18:41:44.573Z,27.30
2022-08-17T18:44:29.845Z,27.20
2022-08-17T18:47:22.686Z,27.10
2022-08-17T18:50:00.542Z,26.90
2022-08-17T18:52:32.799Z,26.80
2022-08-17T18:55:14.311Z,26.90
2022-08-17T18:57:45.870Z,26.70
2022-08-17T19:00:40.344Z,26.80
2022-08-17T19:03:16.667Z,26.70
2022-08-17T19:05:47.556Z,26.60
2022-08-17T19:08:29.946Z,26.60
2022-08-17T19:10:59.909Z,26.40
2022-08-17T19:13:40.771Z,26.10
2022-08-17T19:16:22.243Z,26.10
2022-08-17T19:18:56.753Z,26.10
2022-08-17T19:21:33.121Z,26.00
2022-08-17T19:24:26.794Z,26.00
2022-08-17T19:27:22.851Z,26.00
2022-08-17T19:30:07.526Z,26.00
2022-08-17T19:32:48.532Z,25.80
2022-08-17T19:35:20.646Z,25.70
2022-08-17T19:37:50.576Z,25.70
2022-08-17T19:40:51.679Z,25.40
2022-08-17T19:43:34.873Z,25.50
2022-08-17T19:46:24.958Z,25.50
2022-08-17T19:49:22.873Z,25.40
2022-08-17T19:52:48.591Z,25.30
2022-08-17T19:55:43.888Z,25.10
2022-08-17T19:58:28.105Z,25.10
2022-08-17T20:00:56.761Z,24.90
2022-08-17T20:03:30.314Z,24.90
2022-08-17T20:06:15.534Z,24.90
2022-08-17T20:09:02.456Z,24.90
2022-08-17T20:11:57.950Z,24.80
2022-08-17T20:14:35.980Z,24.80
2022-08-17T20:17:04.357Z,24.60
2022-08-17T20:20:00.252Z,24.40
2022-08-17T20:22:36.909Z,24.50
2022-08-17T20:25:35.542Z,24.50
2022-08-17T20:28:17.975Z,24.30
2022-08-17T20:30:45.282Z,24.20
2022-08-17T20:33:36.302Z,24.30
2022-08-17T20:36:21.834Z,24.10
2022-08-17T20:38:53.855Z,24.00
2022-08-17T20:41:22.781Z,23.90
2022-08-17T20:44:10.267Z,24.00
2022-08-17T20:46:40.610Z,24.10
2022-08-17T20:49:27.150Z,24.10
2022-08-17T20:52:18.468Z,23.90
2022-08-17T20:54:51.419Z,23.90
2022-08-17T20:57:36.684Z,23.70
2022-08-17T21:00:25.453Z,23.70
2022-08-17T21:03:24.599Z,23.60
2022-08-17T21:06:17.443Z,23.70
2022-08-17T21:08:54.055Z,23.70
2022-08-17T21:11:56.748Z,23.60
2022-08-17T21:14:38.102Z,23.50
2022-08-17T21:17:20.079Z,23.50
2022-08-17T21:20:15.124Z,23.50
2022-08-17T21:23:22.887Z,23.40
2022-08-17T21:26:02.622Z,23.40
2022-08-17T21:28:34.278Z,23.30
2022-08-17T21:31:09.155Z,23.20
2022-08-17T21:33:39.650Z,23.20
2022-08-17T21:36:12.829Z,23.10
2022-08-17T21:38:56.986Z,22.90
2022-08-17T21:41:31.062Z,22.90
2022-08-17T21:44:35.055Z,22.90
2022-08-17T21:47:25.320Z,22.70
2022-08-17T21:49:53.945Z,22.70
2022-08-17T21:52:24.292Z,22.60
2022-08-17T21:54:58.502Z,22.70
2022-08-17T21:57:29.030Z,22.60
2022-08-17T22:00:02.498Z,22.60
2022-08-17T22:02:36.269Z,22.60
2022-08-17T22:05:10.895Z,22.40
2022-08-17T22:07:52.865Z,22.40
2022-08-17T22:10:40.964Z,22.40
2022-08-17T22:13:19.870Z,22.30
2022-08-17T22:15:49.755Z,22.40
2022-08-17T22:18:24.892Z,22.40
2022-08-17T22:20:55.431Z,22.30
2022-08-17T22:23:55.148Z,22.20
2022-08-17T22:26:24.948Z,22.20
2022-08-17T22:28:54.033Z,22.20
2022-08-17T22:31:54.389Z,22.20
2022-08-17T22:34:21.548Z,22.10
2022-08-17T22:36:48.843Z,22.10
2022-08-17T22:39:15.873Z,22.10
2022-08-17T22:41:54.839Z,22.10
2022-08-17T22:44:31.938Z,22.00
2022-08-17T22:47:00.914Z,22.00
2022-08-17T22:49:57.908Z,22.00
2022-08-17T22:52:30.131Z,21.90
2022-08-17T22:55:35.846Z,21.80
2022-08-17T22:58:29.894Z,21.80
2022-08-17T23:00:57.054Z,21.60
2022-08-17T23:03:26.497Z,21.50
2022-08-17T23:06:11.073Z,21.60
2022-08-17T23:08:50.870Z,21.50
2022-08-17T23:11:17.961Z,21.50
2022-08-17T23:13:45.110Z,21.50
2022-08-17T23:16:13.501Z,21.50
2022-08-17T23:18:40.720Z,21.40
2022-08-17T23:21:07.873Z,21.40
2022-08-17T23:23:35.554Z,21.40
2022-08-17T23:26:03.068Z,21.40
2022-08-17T23:28:30.175Z,21.30
2022-08-17T23:30:57.280Z,21.40
2022-08-17T23:33:31.070Z,21.40
2022-08-17T23:35:58.906Z,21.40
2022-08-17T23:38:29.225Z,21.50
2022-08-17T23:41:00.081Z,21.50
2022-08-17T23:46:14.257Z,21.60
2022-08-17T23:48:41.323Z,21.60
2022-08-17T23:51:14.197Z,21.60
2022-08-17T23:53:46.246Z,21.60
2022-08-17T23:56:20.516Z,21.60
2022-08-17T23:58:47.741Z,21.60
